Time;durP1;ratioP1;P1;durP2;ratioP2;P2;SDS_P1;SDS_P2;PMS_P1;PMS_P2;Temp;Humidity;BMP_temperature;BMP_pressure;BME280_temperature;BME280_humidity;BME280_pressure;Samples;Min_cycle;Max_cycle;Signal;HPM_P1;HPM_P2
2021/01/26 00:01:08;;;;;;;6.60;3.63;;;;;;;0.63;76.19;100499.59;4897742;29;20468;-71
2021/01/26 00:03:34;;;;;;;3.00;2.78;;;;;;;0.63;75.55;100505.78;4889983;29;20387;-76
2021/01/26 00:05:59;;;;;;;4.93;3.05;;;;;;;0.54;75.31;100492.69;4901467;29;20059;-77
2021/01/26 00:08:27;;;;;;;8.05;3.33;;;;;;;0.46;75.22;100483.72;4899727;29;20100;-78
2021/01/26 00:10:56;;;;;;;2.22;1.95;;;;;;;0.55;75.05;100497.03;4893726;29;20115;-77
2021/01/26 00:13:30;;;;;;;2.08;1.98;;;;;;;0.49;75.26;100488.72;4902075;29;20036;-77
2021/01/26 00:15:56;;;;;;;1.67;1.35;;;;;;;0.38;75.25;100469.59;4892159;29;20373;-78
2021/01/26 00:18:21;;;;;;;2.42;2.22;;;;;;;0.43;75.26;100489.50;4882514;29;20060;-80
2021/01/26 00:20:48;;;;;;;5.53;3.03;;;;;;;0.33;75.21;100479.09;4874778;29;20401;-77
2021/01/26 00:23:23;;;;;;;10.88;4.20;;;;;;;0.31;75.41;100478.47;4877719;29;20192;-79
2021/01/26 00:25:48;;;;;;;4.05;3.58;;;;;;;0.28;75.84;100478.88;4882359;29;20127;-78
2021/01/26 00:28:15;;;;;;;4.18;3.65;;;;;;;0.30;76.20;100478.66;4907288;29;20099;-77
2021/01/26 00:30:42;;;;;;;5.38;3.80;;;;;;;0.39;76.33;100488.25;4890046;29;20114;-79
2021/01/26 00:33:16;;;;;;;4.57;3.83;;;;;;;0.58;75.95;100508.22;4886142;29;21121;-78
2021/01/26 00:35:42;;;;;;;10.27;4.15;;;;;;;0.61;76.86;100507.00;4900325;29;20017;-78
2021/01/26 00:38:08;;;;;;;4.10;3.22;;;;;;;0.64;75.69;100501.22;4902088;29;20043;-78
2021/01/26 00:40:33;;;;;;;3.30;3.10;;;;;;;0.68;76.37;100503.31;4897558;29;20048;-78
2021/01/26 00:42:59;;;;;;;5.22;2.63;;;;;;;0.70;75.98;100497.72;4883368;29;20040;-78
2021/01/26 00:45:26;;;;;;;3.53;3.30;;;;;;;0.96;75.88;100531.22;4900720;29;20024;-79
2021/01/26 00:47:55;;;;;;;6.25;3.28;;;;;;;0.89;75.61;100506.09;4877713;29;20025;-78
2021/01/26 00:50:22;;;;;;;5.28;2.65;;;;;;;1.08;75.98;100518.00;4903366;29;20043;-78
2021/01/26 00:53:15;;;;;;;3.28;2.70;;;;;;;1.07;75.55;100514.47;4881690;29;20564;-80
2021/01/26 00:55:43;;;;;;;1.05;1.05;;;;;;;1.12;75.47;100509.31;4884132;29;20040;-77
2021/01/26 00:58:09;;;;;;;1.55;1.45;;;;;;;1.32;74.66;100512.06;4886456;29;20024;-78
2021/01/26 01:00:37;;;;;;;1.88;1.10;;;;;;;1.46;75.05;100521.03;4880130;29;20028;-79
2021/01/26 01:03:06;;;;;;;0.82;0.68;;;;;;;1.48;75.78;100507.34;4902338;29;20032;-79
2021/01/26 01:05:42;;;;;;;0.40;0.40;;;;;;;1.56;74.16;100513.38;4850301;29;20408;-79
2021/01/26 01:08:10;;;;;;;0.60;0.60;;;;;;;1.59;74.79;100519.41;4869945;29;20029;-77
2021/01/26 01:10:58;;;;;;;0.60;0.43;;;;;;;1.78;73.85;100526.66;4899514;29;20047;-78
2021/01/26 01:13:44;;;;;;;3.15;0.52;;;;;;;1.87;73.83;100527.31;4884301;29;20169;-78
2021/01/26 01:16:13;;;;;;;0.60;0.50;;;;;;;1.94;75.09;100532.72;4896714;29;20048;-79
2021/01/26 01:18:39;;;;;;;0.47;0.45;;;;;;;1.90;74.18;100513.44;4873674;29;20035;-77
2021/01/26 01:21:04;;;;;;;0.43;0.43;;;;;;;1.94;74.29;100505.75;4902127;29;20036;-76
2021/01/26 01:23:35;;;;;;;0.57;0.50;;;;;;;2.09;74.77;100520.69;4902525;29;20085;-78
2021/01/26 01:26:05;;;;;;;0.57;0.57;;;;;;;2.17;73.42;100522.34;4881969;29;20031;-77
2021/01/26 01:28:42;;;;;;;0.40;0.40;;;;;;;2.21;74.45;100523.59;4900016;29;20127;-78
2021/01/26 01:31:19;;;;;;;1.15;0.47;;;;;;;2.30;73.16;100518.81;4866651;29;20035;-78
2021/01/26 01:33:47;;;;;;;0.40;0.40;;;;;;;2.37;74.40;100518.81;4881431;29;20141;-77
2021/01/26 01:36:13;;;;;;;0.50;0.50;;;;;;;2.40;73.94;100513.00;4883656;29;20043;-77
2021/01/26 01:38:59;;;;;;;0.40;0.40;;;;;;;2.50;73.25;100521.50;4875969;29;20021;-77
2021/01/26 01:41:36;;;;;;;0.38;0.38;;;;;;;2.55;74.10;100524.38;4899788;29;20048;-77
2021/01/26 01:44:12;;;;;;;0.40;0.40;;;;;;;2.58;72.85;100526.66;4892833;29;20025;-78
2021/01/26 01:47:00;;;;;;;0.30;0.30;;;;;;;2.54;72.94;100522.72;4891344;29;20029;-78
2021/01/26 01:49:34;;;;;;;0.30;0.30;;;;;;;2.65;73.28;100532.03;4886406;29;20037;-77
2021/01/26 01:52:04;;;;;;;0.40;0.40;;;;;;;2.65;73.30;100528.53;4869068;29;20067;-77
2021/01/26 01:54:45;;;;;;;0.25;0.25;;;;;;;2.56;72.87;100528.75;4873261;29;20079;-77
2021/01/26 01:57:32;;;;;;;0.43;0.38;;;;;;;2.47;72.96;100521.06;4895694;29;20020;-78
2021/01/26 02:00:11;;;;;;;0.38;0.38;;;;;;;2.36;72.39;100517.16;4890203;29;20587;-77
2021/01/26 02:02:51;;;;;;;0.55;0.55;;;;;;;2.43;73.32;100536.88;4885497;29;20502;-78
2021/01/26 02:05:39;;;;;;;0.68;0.20;;;;;;;2.32;72.85;100529.41;4899661;29;20028;-77
2021/01/26 02:08:56;;;;;;;1.30;0.30;;;;;;;2.22;73.15;100521.72;4894026;29;20510;-77
2021/01/26 02:13:49;;;;;;;1.17;1.08;;;;;;;2.10;73.25;100532.31;4856078;29;20056;-77
2021/01/26 02:16:32;;;;;;;1.15;1.05;;;;;;;2.11;73.43;100527.75;4889968;29;20476;-77
2021/01/26 02:19:19;;;;;;;1.00;1.00;;;;;;;2.06;73.35;100531.06;4876810;29;20029;-78
2021/01/26 02:22:42;;;;;;;1.60;1.50;;;;;;;1.85;72.61;100503.25;4886102;29;20048;-77
2021/01/26 02:28:29;;;;;;;1.10;1.08;;;;;;;1.85;73.03;100530.22;4888999;29;20045;-79
2021/01/26 02:31:49;;;;;;;0.77;0.77;;;;;;;1.74;72.86;100515.47;4881397;29;20032;-77
2021/01/26 02:34:30;;;;;;;0.50;0.50;;;;;;;1.64;73.49;100511.53;4895593;29;20475;-78
2021/01/26 02:37:45;;;;;;;;;;;;;;;;;;;;;
2021/01/26 02:40:34;;;;;;;0.70;0.70;;;;;;;1.63;72.83;100515.25;4896009;29;20038;-78
2021/01/26 02:43:31;;;;;;;0.63;0.45;;;;;;;1.68;73.33;100518.16;4882873;29;20033;-78
2021/01/26 02:46:05;;;;;;;0.50;0.50;;;;;;;1.49;72.77;100499.06;4889957;29;20024;-77
2021/01/26 02:49:06;;;;;;;1.58;1.08;;;;;;;1.58;73.16;100507.78;4894638;29;20039;-77
2021/01/26 02:52:06;;;;;;;2.88;1.55;;;;;;;1.59;72.77;100519.41;4856941;29;20041;-77
2021/01/26 02:55:04;;;;;;;2.67;1.95;;;;;;;1.43;73.64;100509.81;4891498;29;20072;-78
2021/01/26 02:57:40;;;;;;;1.88;1.77;;;;;;;1.45;73.71;100516.69;4878256;29;20036;-76
2021/01/26 03:00:07;;;;;;;2.63;2.17;;;;;;;1.43;73.88;100520.59;4896652;29;20127;-77
2021/01/26 03:02:46;;;;;;;1.70;1.60;;;;;;;1.36;73.38;100504.44;4896500;29;20173;-77
2021/01/26 03:05:32;;;;;;;1.55;1.45;;;;;;;1.39;73.44;100515.63;4894242;29;20036;-79
2021/01/26 03:08:07;;;;;;;;;;;;;;;1.42;73.79;100514.38;4886031;29;20052;-79
2021/01/26 03:10:50;;;;;;;0.88;0.88;;;;;;;1.47;74.28;100519.16;4868934;29;19922;-77
2021/01/26 03:13:26;;;;;;;0.70;0.50;;;;;;;1.43;73.74;100516.06;4885054;29;20033;-76
2021/01/26 03:16:18;;;;;;;0.50;0.50;;;;;;;1.56;72.96;100524.16;4894885;29;20400;-76
2021/01/26 03:19:01;;;;;;;0.80;0.80;;;;;;;1.53;73.31;100521.88;4870415;29;20044;-76
2021/01/26 03:21:55;;;;;;;1.17;1.05;;;;;;;1.59;73.14;100527.47;4895873;29;20116;-76
2021/01/26 03:24:28;;;;;;;2.10;1.92;;;;;;;1.53;73.39;100515.66;4881007;29;20380;-76
2021/01/26 03:27:10;;;;;;;3.70;1.75;;;;;;;1.45;73.71;100502.38;4895630;29;20040;-77
2021/01/26 03:29:41;;;;;;;3.10;2.22;;;;;;;1.52;72.64;100509.44;4888467;29;20037;-77
2021/01/26 03:32:14;;;;;;;3.88;2.00;;;;;;;1.56;72.59;100508.00;4896550;29;20503;-77
2021/01/26 03:34:40;;;;;;;1.13;1.02;;;;;;;1.50;73.19;100495.31;4884952;29;20039;-76
2021/01/26 03:37:06;;;;;;;1.60;1.50;;;;;;;1.66;73.04;100509.44;4897084;29;20458;-77
2021/01/26 03:39:32;;;;;;;1.65;1.55;;;;;;;1.65;73.45;100508.63;4891157;29;20041;-76
2021/01/26 03:42:10;;;;;;;1.70;1.60;;;;;;;1.63;73.19;100499.09;4844766;29;20072;-77
2021/01/26 03:44:58;;;;;;;1.92;1.20;;;;;;;1.73;73.93;100499.50;4898781;29;20452;-75
2021/01/26 03:48:00;;;;;;;1.33;1.23;;;;;;;1.78;73.88;100505.09;4862254;29;20132;-76
2021/01/26 03:51:01;;;;;;;1.10;1.10;;;;;;;1.71;73.06;100488.94;4821922;29;20158;-78
2021/01/26 03:54:08;;;;;;;;;;;;;;;;;;;;;
2021/01/26 03:57:01;;;;;;;0.30;0.30;;;;;;;1.85;73.79;100484.38;4890690;29;20028;-77
2021/01/26 03:59:42;;;;;;;0.60;0.52;;;;;;;2.01;73.41;100501.19;4895288;29;20423;-76
2021/01/26 04:02:14;;;;;;;0.70;0.70;;;;;;;2.03;72.67;100499.09;4885802;29;22690;-76
2021/01/26 04:05:01;;;;;;;0.60;0.57;;;;;;;2.06;73.35;100494.13;4894198;29;20407;-76
2021/01/26 04:07:35;;;;;;;0.50;0.50;;;;;;;2.12;72.80;100497.88;4883176;29;20150;-76
2021/01/26 04:10:26;;;;;;;3.50;0.43;;;;;;;2.18;72.09;100497.03;4893854;29;20040;-77
2021/01/26 04:13:25;;;;;;;0.30;0.30;;;;;;;2.22;73.06;100492.88;4874899;29;20071;-77
2021/01/26 04:16:07;;;;;;;0.47;0.30;;;;;;;2.24;72.30;100487.28;4865153;29;20049;-77
2021/01/26 04:18:38;;;;;;;0.60;0.60;;;;;;;2.32;73.17;100494.31;4873746;29;20630;-77
2021/01/26 04:21:06;;;;;;;0.10;0.10;;;;;;;2.32;72.81;100486.22;4881845;29;20481;-77
2021/01/26 04:23:45;;;;;;;;;;;;;;;;;;;;;
2021/01/26 04:26:17;;;;;;;0.20;0.20;;;;;;;2.43;72.68;100499.06;4883146;29;20031;-77
2021/01/26 04:28:45;;;;;;;0.35;0.35;;;;;;;2.40;72.11;100486.00;4878124;29;20115;-77
2021/01/26 04:31:14;;;;;;;0.10;0.10;;;;;;;2.46;72.48;100493.25;4874776;29;20056;-79
2021/01/26 04:33:41;;;;;;;0.10;0.10;;;;;;;2.51;72.33;100500.72;4894382;29;20084;-78
2021/01/26 04:36:10;;;;;;;0.10;0.10;;;;;;;2.53;72.68;100499.47;4890592;29;20028;-78
2021/01/26 04:38:54;;;;;;;0.15;0.15;;;;;;;2.55;72.07;100497.38;4875755;29;20051;-78
2021/01/26 04:41:43;;;;;;;0.17;0.10;;;;;;;2.58;73.06;100491.56;4893914;29;20108;-77
2021/01/26 04:44:32;;;;;;;0.13;0.13;;;;;;;2.58;72.43;100486.16;4894958;29;20488;-77
2021/01/26 04:47:32;;;;;;;0.25;0.25;;;;;;;2.60;71.78;100492.19;4888570;29;20036;-76
2021/01/26 04:50:27;;;;;;;0.40;0.30;;;;;;;2.61;72.36;100487.59;4897282;29;20045;-77
2021/01/26 04:53:38;;;;;;;0.65;0.28;;;;;;;2.65;71.64;100491.53;4835202;29;20048;-77
2021/01/26 04:56:37;;;;;;;0.30;0.30;;;;;;;2.67;72.85;100491.34;4886370;29;20123;-77
2021/01/26 04:59:12;;;;;;;0.22;0.10;;;;;;;2.68;72.20;100487.59;4889054;29;20056;-77
2021/01/26 05:02:23;;;;;;;0.38;0.30;;;;;;;2.70;71.91;100485.50;4889541;29;20063;-78
2021/01/26 05:04:55;;;;;;;1.58;0.40;;;;;;;2.64;72.11;100483.66;4884336;29;20043;-78
2021/01/26 05:07:32;;;;;;;0.47;0.47;;;;;;;2.72;71.38;100494.25;4891971;29;20021;-77
2021/01/26 05:10:01;;;;;;;2.72;0.55;;;;;;;2.73;72.55;100498.56;4892688;29;20088;-78
2021/01/26 05:12:35;;;;;;;0.20;0.20;;;;;;;2.68;71.59;100485.72;4877376;29;20025;-78
2021/01/26 05:15:48;;;;;;;1.00;0.40;;;;;;;2.70;72.19;100494.44;4887289;29;20025;-78
2021/01/26 05:18:06;;;;;;;0.70;0.30;;;;;;;2.78;71.98;100504.19;4885144;29;20041;-78
2021/01/26 05:20:53;;;;;;;0.20;0.20;;;;;;;2.72;72.58;100486.13;4883468;29;20039;-78
2021/01/26 05:23:54;;;;;;;0.43;0.40;;;;;;;2.71;72.06;100485.28;4889864;29;20029;-78
2021/01/26 05:26:32;;;;;;;;;;;;;;;;;;;;;
2021/01/26 05:28:57;;;;;;;0.47;0.40;;;;;;;2.82;71.35;100497.31;4894259;29;20036;-78
2021/01/26 05:31:29;;;;;;;0.30;0.15;;;;;;;2.74;71.76;100486.75;4896382;29;20119;-78
2021/01/26 05:34:29;;;;;;;0.30;0.20;;;;;;;2.78;71.64;100485.28;4894526;29;20024;-79
2021/01/26 05:36:54;;;;;;;0.05;0.05;;;;;;;2.81;71.99;100479.44;4880619;29;20049;-78
2021/01/26 05:39:46;;;;;;;1.20;0.50;;;;;;;2.88;71.49;100485.66;4886586;29;20033;-78
2021/01/26 05:42:14;;;;;;;0.40;0.35;;;;;;;2.87;72.14;100478.59;4870111;29;20044;-78
2021/01/26 05:45:01;;;;;;;0.50;0.35;;;;;;;2.90;71.66;100482.75;4901762;29;20071;-77
2021/01/26 05:47:43;;;;;;;0.50;0.40;;;;;;;2.94;71.55;100481.28;4896822;29;20384;-77
2021/01/26 05:50:55;;;;;;;0.35;0.30;;;;;;;2.97;72.21;100478.97;4884807;29;20037;-78
2021/01/26 05:53:48;;;;;;;0.35;0.28;;;;;;;2.99;71.16;100469.81;4878078;29;20048;-77
2021/01/26 05:56:48;;;;;;;0.10;0.10;;;;;;;3.02;71.63;100470.19;4878644;29;20471;-77
2021/01/26 05:59:52;;;;;;;0.20;0.15;;;;;;;3.05;71.04;100479.75;4872971;29;20045;-78
2021/01/26 06:02:45;;;;;;;0.40;0.20;;;;;;;2.96;71.84;100466.53;4791394;29;20034;-77
2021/01/26 06:05:16;;;;;;;0.60;0.40;;;;;;;2.94;70.96;100457.78;4812818;29;20042;-77
2021/01/26 06:10:48;;;;;;;0.17;0.15;;;;;;;3.00;71.14;100457.97;4876362;29;20044;-76
2021/01/26 06:13:26;;;;;;;0.50;0.50;;;;;;;3.01;71.36;100467.72;4876201;29;20028;-77
2021/01/26 06:16:12;;;;;;;0.45;0.45;;;;;;;3.09;72.08;100470.19;4881317;29;20486;-78
2021/01/26 06:18:57;;;;;;;1.00;0.40;;;;;;;3.09;71.77;100475.59;4889784;29;20040;-77
2021/01/26 06:21:43;;;;;;;0.20;0.20;;;;;;;3.02;70.97;100458.56;4896351;29;20052;-76
2021/01/26 06:24:16;;;;;;;0.25;0.20;;;;;;;3.17;71.40;100475.34;4880249;29;20021;-78
2021/01/26 06:27:04;;;;;;;0.20;0.13;;;;;;;3.05;71.47;100442.78;4876497;29;20110;-76
2021/01/26 06:29:36;;;;;;;0.47;0.47;;;;;;;3.16;71.42;100462.88;4851865;29;20036;-76
2021/01/26 06:32:14;;;;;;;0.40;0.35;;;;;;;3.14;71.52;100463.09;4897872;29;20107;-77
2021/01/26 06:34:54;;;;;;;0.20;0.20;;;;;;;3.23;71.68;100460.97;4885692;29;20123;-77
2021/01/26 06:38:03;;;;;;;0.17;0.13;;;;;;;3.29;71.58;100462.78;4880947;29;20132;-78
2021/01/26 06:41:01;;;;;;;0.10;0.10;;;;;;;3.30;71.02;100452.81;4842904;29;20507;-78
2021/01/26 06:43:38;;;;;;;0.43;0.43;;;;;;;3.30;71.44;100450.09;4863357;29;20420;-79
2021/01/26 06:46:51;;;;;;;;;;;;;;;;;;;;;
2021/01/26 06:49:41;;;;;;;2.55;0.20;;;;;;;3.23;70.78;100436.66;4877711;29;20043;-79
2021/01/26 06:55:42;;;;;;;0.40;0.40;;;;;;;3.34;70.60;100458.63;4857698;29;20552;-77
2021/01/26 06:58:29;;;;;;;0.43;0.40;;;;;;;3.35;70.35;100457.59;4870900;29;20037;-78
2021/01/26 07:01:20;;;;;;;0.30;0.30;;;;;;;3.37;70.17;100463.59;4873584;29;20029;-78
2021/01/26 07:04:11;;;;;;;0.45;0.25;;;;;;;3.17;70.69;100426.72;4871895;29;20036;-77
2021/01/26 07:07:04;;;;;;;1.27;0.52;;;;;;;3.34;70.32;100450.50;4862763;29;20060;-78
2021/01/26 07:09:58;;;;;;;0.77;0.77;;;;;;;3.35;70.84;100460.28;4864413;29;20057;-74
2021/01/26 07:12:31;;;;;;;0.52;0.52;;;;;;;3.32;71.38;100467.75;4871730;29;20052;-73
2021/01/26 07:14:56;;;;;;;2.28;0.63;;;;;;;3.32;70.93;100475.88;4878601;29;20558;-75
2021/01/26 07:18:06;;;;;;;1.77;0.60;;;;;;;3.36;70.00;100475.44;4867648;29;20088;-81
2021/01/26 07:20:39;;;;;;;0.85;0.80;;;;;;;3.31;70.20;100462.56;4844551;29;20040;-79
2021/01/26 07:23:32;;;;;;;0.82;0.70;;;;;;;3.38;70.30;100466.06;4860559;29;20386;-79
2021/01/26 07:26:34;;;;;;;0.55;0.47;;;;;;;3.38;70.25;100457.97;4863352;29;20029;-78
2021/01/26 07:29:49;;;;;;;0.70;0.70;;;;;;;3.35;71.12;100466.50;4879181;29;20026;-77
2021/01/26 07:32:29;;;;;;;0.70;0.57;;;;;;;3.39;71.04;100470.44;4855633;29;20053;-77
2021/01/26 07:35:12;;;;;;;1.17;0.90;;;;;;;3.42;70.77;100475.41;4854440;29;20056;-76
2021/01/26 07:38:19;;;;;;;0.40;0.32;;;;;;;3.39;70.70;100469.59;4850679;29;21754;-78
2021/01/26 07:41:00;;;;;;;0.28;0.28;;;;;;;3.48;71.17;100473.72;4854751;29;20112;-78
2021/01/26 07:44:07;;;;;;;0.32;0.20;;;;;;;3.50;70.32;100482.44;4857951;29;20040;-78
2021/01/26 07:46:35;;;;;;;0.50;0.43;;;;;;;3.49;70.88;100486.19;4860797;29;20108;-77
2021/01/26 07:52:57;;;;;;;;;;;;;;;;;;;;;
2021/01/26 07:55:42;;;;;;;0.45;0.45;;;;;;;3.33;70.51;100490.25;4878398;29;20059;-78
2021/01/26 07:58:12;;;;;;;0.30;0.30;;;;;;;3.52;71.22;100517.34;4867951;29;20450;-77
2021/01/26 08:00:51;;;;;;;0.50;0.50;;;;;;;3.48;70.29;100506.16;4873618;29;20025;-77
2021/01/26 08:03:30;;;;;;;0.40;0.20;;;;;;;3.53;70.78;100492.81;4871259;29;20120;-76
2021/01/26 08:06:04;;;;;;;1.63;1.02;;;;;;;3.54;71.12;100480.94;4871845;29;20050;-75
2021/01/26 08:09:00;;;;;;;1.30;0.88;;;;;;;3.62;70.75;100486.09;4870849;29;20445;-76
2021/01/26 08:11:30;;;;;;;1.42;0.88;;;;;;;3.55;70.50;100460.97;4857823;29;20020;-76
2021/01/26 08:13:58;;;;;;;2.95;0.90;;;;;;;3.70;70.90;100459.84;4867939;29;20028;-76
2021/01/26 08:17:12;;;;;;;1.63;1.10;;;;;;;3.70;70.32;100465.25;4880218;29;20051;-79
2021/01/26 08:24:27;;;;;;;;;;;;;;;;;;;;;
2021/01/26 08:27:39;;;;;;;1.70;1.38;;;;;;;3.53;70.81;100451.41;4836722;29;20042;-77
2021/01/26 08:30:28;;;;;;;1.25;1.15;;;;;;;3.53;71.26;100454.94;4816606;29;20038;-78
2021/01/26 08:33:07;;;;;;;1.15;0.77;;;;;;;3.63;71.35;100455.28;4823660;29;20116;-78
2021/01/26 08:35:34;;;;;;;1.23;1.13;;;;;;;3.75;71.10;100473.53;4843189;29;21058;-76
2021/01/26 08:42:16;;;;;;;0.90;0.85;;;;;;;3.77;70.94;100466.03;4749585;29;20416;-77
2021/01/26 09:46:45;;;;;;;0.22;0.22;;;;;;;5.63;70.87;100511.06;4658096;30;20050;-74
2021/01/26 09:49:27;;;;;;;1.67;0.20;;;;;;;5.67;70.88;100503.28;4668196;30;20049;-74
2021/01/26 10:03:02;;;;;;;;;;;;;;;;;;;;;
2021/01/26 11:22:00;;;;;;;0.93;0.70;;;;;;;6.30;72.60;100347.06;4808630;29;20082;-78
2021/01/26 11:24:25;;;;;;;3.55;0.80;;;;;;;6.25;72.49;100342.38;4788260;29;20045;-77
2021/01/26 11:26:56;;;;;;;4.50;1.02;;;;;;;6.33;72.71;100346.59;4853455;29;21338;-78
2021/01/26 11:29:22;;;;;;;0.90;0.90;;;;;;;6.40;72.66;100355.44;4875383;29;20547;-77
2021/01/26 11:31:47;;;;;;;3.35;1.35;;;;;;;6.43;72.44;100354.13;4899527;29;20036;-77
2021/01/26 11:34:23;;;;;;;;;;;;;;;;;;;;;
2021/01/26 11:36:49;;;;;;;3.88;1.15;;;;;;;6.46;72.16;100362.63;4905491;29;20027;-78
2021/01/26 11:39:15;;;;;;;1.23;1.00;;;;;;;6.50;73.39;100356.69;4884244;29;20128;-75
2021/01/26 11:41:43;;;;;;;1.83;0.90;;;;;;;6.49;73.55;100363.22;4884925;29;20032;-78
2021/01/26 11:44:52;;;;;;;;;;;;;;;;;;;;;
2021/01/26 11:47:44;;;;;;;6.28;1.50;;;;;;;6.71;72.99;100357.94;4893223;29;20060;-77
2021/01/26 11:50:22;;;;;;;6.15;1.85;;;;;;;6.68;73.26;100340.22;4904111;29;20047;-79
2021/01/26 11:52:50;;;;;;;1.83;1.48;;;;;;;6.75;73.29;100353.69;4901984;29;20025;-77
2021/01/26 11:55:20;;;;;;;1.17;1.05;;;;;;;6.86;72.64;100365.56;4908466;29;20028;-77
2021/01/26 11:57:47;;;;;;;1.15;0.90;;;;;;;6.89;72.72;100373.22;4877454;29;20036;-77
2021/01/26 12:00:15;;;;;;;7.32;1.35;;;;;;;6.81;72.16;100383.41;4900205;29;20437;-77
2021/01/26 12:02:45;;;;;;;2.80;1.38;;;;;;;6.74;73.11;100380.00;4904134;29;20396;-76
2021/01/26 12:05:12;;;;;;;1.75;0.57;;;;;;;6.73;73.10;100386.53;4868033;29;20032;-77
2021/01/26 12:07:38;;;;;;;3.95;1.10;;;;;;;6.63;73.68;100361.88;4883867;29;20040;-78
2021/01/26 12:10:07;;;;;;;1.02;0.57;;;;;;;6.57;73.98;100347.38;4900601;29;20024;-78
2021/01/26 12:12:34;;;;;;;3.10;0.80;;;;;;;6.72;74.47;100344.13;4896195;29;20036;-78
2021/01/26 12:14:59;;;;;;;0.73;0.73;;;;;;;6.82;74.06;100340.78;4896148;29;20035;-77
2021/01/26 12:17:25;;;;;;;0.85;0.60;;;;;;;6.74;73.66;100303.91;4898089;29;20029;-78
2021/01/26 12:19:51;;;;;;;2.67;0.60;;;;;;;6.71;73.71;100282.66;4886426;29;20395;-77
2021/01/26 12:22:19;;;;;;;0.95;0.70;;;;;;;6.69;75.23;100279.38;4899016;29;20089;-78
2021/01/26 12:24:45;;;;;;;4.05;1.02;;;;;;;6.54;75.75;100268.22;4900351;29;20035;-74
2021/01/26 12:27:13;;;;;;;1.17;0.95;;;;;;;6.45;76.32;100257.75;4902804;29;20096;-76
2021/01/26 12:29:53;;;;;;;3.08;0.80;;;;;;;6.51;77.01;100268.72;4900882;29;20154;-77
2021/01/26 12:32:20;;;;;;;1.40;0.60;;;;;;;6.56;77.04;100290.56;4883784;29;20126;-77
2021/01/26 12:56:56;;;;;;;;;;;;;;;;;;;;;
2021/01/26 13:11:02;;;;;;;;;;;;;;;;;;;;;
2021/01/26 13:13:48;;;;;;;3.03;1.60;;;;;;;6.00;81.88;100234.06;4563918;30;20121;-77
2021/01/26 13:16:32;;;;;;;3.22;1.50;;;;;;;5.94;81.87;100229.53;4722133;29;20175;-78
2021/01/26 13:19:21;;;;;;;6.93;2.15;;;;;;;5.97;82.05;100233.69;4850428;29;20057;-79
2021/01/26 13:25:42;;;;;;;;;;;;;;;;;;;;;
2021/01/26 13:28:08;;;;;;;7.13;2.13;;;;;;;5.95;83.38;100225.78;4909765;29;20093;-78
2021/01/26 13:30:46;;;;;;;2.95;2.15;;;;;;;5.99;83.77;100210.69;4885336;29;20111;-78
2021/01/26 13:33:14;;;;;;;6.85;1.77;;;;;;;5.96;83.63;100205.72;4888242;29;20057;-78
2021/01/26 13:35:53;;;;;;;7.22;2.55;;;;;;;5.92;83.85;100193.69;4873642;29;20095;-79
2021/01/26 13:38:22;;;;;;;9.35;2.58;;;;;;;6.03;84.20;100198.28;4897336;29;20125;-79
2021/01/26 13:41:27;;;;;;;4.55;1.30;;;;;;;6.00;83.83;100171.63;4872361;29;20035;-78
2021/01/26 13:43:53;;;;;;;2.15;1.50;;;;;;;5.97;83.81;100161.25;4872524;29;20500;-77
2021/01/26 13:46:18;;;;;;;5.88;1.70;;;;;;;5.96;84.33;100162.28;4903721;29;20020;-77
2021/01/26 13:48:44;;;;;;;1.70;1.60;;;;;;;5.91;84.62;100178.47;4895919;29;20096;-77
2021/01/26 13:51:09;;;;;;;3.42;2.10;;;;;;;5.92;84.63;100171.97;4901002;29;20017;-78
2021/01/26 13:53:45;;;;;;;4.22;2.10;;;;;;;5.96;84.56;100173.16;4896644;29;20060;-78
2021/01/26 13:56:10;;;;;;;2.92;1.98;;;;;;;5.79;84.47;100115.28;4877103;29;20045;-79
2021/01/26 13:58:36;;;;;;;7.75;1.65;;;;;;;5.97;85.28;100174.81;4901384;29;20092;-78
2021/01/26 14:01:02;;;;;;;5.18;2.20;;;;;;;5.76;84.82;100133.66;4891606;29;20073;-79
2021/01/26 14:03:39;;;;;;;2.15;1.40;;;;;;;5.84;84.72;100140.63;4898487;29;20116;-78
2021/01/26 14:06:10;;;;;;;3.70;3.40;;;;;;;5.85;85.08;100146.88;4905690;29;20027;-78
2021/01/26 14:08:38;;;;;;;2.35;2.15;;;;;;;5.83;84.67;100147.09;4872548;29;20049;-79
2021/01/26 14:11:06;;;;;;;6.07;2.67;;;;;;;5.89;85.05;100120.91;4906042;29;20119;-76
2021/01/26 14:13:49;;;;;;;6.18;2.72;;;;;;;5.96;85.19;100116.16;4891520;29;20111;-78
2021/01/26 14:16:14;;;;;;;2.40;2.30;;;;;;;6.02;85.45;100117.09;4908236;29;20021;-77
2021/01/26 14:18:40;;;;;;;4.88;2.60;;;;;;;6.06;85.15;100113.66;4903019;29;20156;-77
2021/01/26 14:21:08;;;;;;;6.18;3.00;;;;;;;6.15;85.59;100115.94;4868986;29;20036;-76
2021/01/26 14:23:34;;;;;;;5.50;3.13;;;;;;;6.08;85.85;100095.22;4903045;29;21709;-78
2021/01/26 14:26:17;;;;;;;8.38;4.00;;;;;;;6.22;85.63;100112.03;4901813;29;20025;-79
2021/01/26 14:28:52;;;;;;;5.60;3.53;;;;;;;6.16;85.66;100079.59;4881680;29;20115;-78
2021/01/26 14:31:30;;;;;;;;;;;;;;;;;;;;;
2021/01/26 14:33:55;;;;;;;8.80;5.07;;;;;;;6.29;85.91;100073.84;4889753;29;20033;-77
2021/01/26 14:36:21;;;;;;;10.85;6.13;;;;;;;6.31;84.81;100063.56;4904403;29;20047;-78
2021/01/26 14:38:56;;;;;;;;;;;;;;;;;;;;;
2021/01/26 14:41:47;;;;;;;16.65;9.65;;;;;;;6.25;85.70;100050.97;4900521;29;20122;-80
2021/01/26 14:44:18;;;;;;;26.10;11.40;;;;;;;6.42;85.35;100075.41;4886989;29;20035;-77
2021/01/26 14:47:06;;;;;;;28.15;15.48;;;;;;;6.38;85.21;100088.69;4908340;29;20103;-78
2021/01/26 14:49:44;;;;;;;41.92;17.92;;;;;;;6.38;84.75;100077.81;4875979;29;20124;-76
2021/01/26 14:52:12;;;;;;;44.35;17.33;;;;;;;6.35;85.59;100078.31;4881216;29;20108;-78
2021/01/26 14:54:41;;;;;;;41.70;16.83;;;;;;;6.32;85.30;100062.47;4884826;29;20035;-78
2021/01/26 14:57:08;;;;;;;30.33;14.95;;;;;;;6.32;85.56;100067.09;4908917;29;20035;-78
2021/01/26 14:59:39;;;;;;;25.67;10.93;;;;;;;6.33;85.60;100080.44;4895343;29;20028;-78
2021/01/26 15:02:07;;;;;;;9.07;6.20;;;;;;;6.32;85.21;100062.47;4876982;29;20043;-78
2021/01/26 15:05:01;;;;;;;;;;;;;;;;;;;;;
2021/01/26 15:07:30;;;;;;;2.28;1.50;;;;;;;6.43;85.99;100080.59;4901097;29;20108;-80
2021/01/26 15:09:55;;;;;;;3.50;1.23;;;;;;;6.43;85.85;100077.06;4899176;29;20052;-78
2021/01/26 15:12:21;;;;;;;1.20;1.10;;;;;;;6.44;86.03;100063.25;4897395;29;20484;-77
2021/01/26 15:14:47;;;;;;;2.88;1.08;;;;;;;6.42;85.33;100057.22;4890162;29;20063;-78
2021/01/26 15:17:34;;;;;;;;;;;;;;;;;;;;;
2021/01/26 15:24:33;;;;;;;;;;;;;;;;;;;;;
2021/01/26 16:20:48;;;;;;;1.75;0.70;;;;;;;6.40;86.26;99994.19;4878228;29;20056;-78
2021/01/26 16:31:56;;;;;;;;;;;;;;;;;;;;;
2021/01/26 18:12:49;;;;;;;2.20;2.08;;;;;;;7.08;86.79;99938.81;5151213;22;25744921;-78
2021/01/26 18:15:18;;;;;;;1.52;1.42;;;;;;;7.11;86.97;99933.69;6224053;23;20019;-79
2021/01/26 18:17:44;;;;;;;1.95;1.85;;;;;;;7.14;87.74;99932.34;6249272;23;20408;-77
2021/01/26 18:20:14;;;;;;;1.10;1.10;;;;;;;7.12;87.21;99924.44;6225512;23;20030;-79
2021/01/26 18:22:40;;;;;;;1.90;1.80;;;;;;;7.26;86.82;99945.81;6173358;23;20316;-77
2021/01/26 18:25:07;;;;;;;1.40;1.20;;;;;;;7.21;87.32;99932.97;6222131;23;20066;-75
2021/01/26 18:27:32;;;;;;;2.53;1.42;;;;;;;7.30;87.54;99928.72;6212260;23;20024;-77
2021/01/26 18:29:58;;;;;;;1.40;1.17;;;;;;;7.34;87.22;99923.59;6245495;23;20423;-77
2021/01/26 18:32:25;;;;;;;1.80;1.70;;;;;;;7.29;87.46;99902.59;6192397;23;20024;-80
2021/01/26 18:34:50;;;;;;;1.85;1.67;;;;;;;7.26;86.96;99903.13;6219712;23;19996;-81
2021/01/26 18:37:48;;;;;;;2.65;1.98;;;;;;;7.38;87.53;99927.44;6198236;23;20062;-82
2021/01/26 18:41:00;;;;;;;1.42;1.33;;;;;;;7.45;86.83;99919.88;6225664;23;20019;-80
2021/01/26 18:43:26;;;;;;;2.72;1.30;;;;;;;7.26;86.74;99896.88;6221208;23;20332;-80
2021/01/26 18:45:57;;;;;;;1.70;1.60;;;;;;;7.29;87.60;99899.06;6199707;23;20016;-82
2021/01/26 18:48:30;;;;;;;1.98;1.80;;;;;;;7.36;87.80;99902.41;6227381;23;20004;-79
2021/01/26 18:51:12;;;;;;;3.63;1.67;;;;;;;7.43;87.71;99894.84;6250898;23;20027;-80
2021/01/26 18:53:44;;;;;;;1.70;1.60;;;;;;;7.45;86.91;99895.41;6251503;23;20000;-77
2021/01/26 18:56:12;;;;;;;2.08;1.88;;;;;;;7.41;86.90;99882.59;6220387;23;20003;-78
2021/01/26 18:58:40;;;;;;;1.70;1.60;;;;;;;7.40;86.98;99887.19;6223208;23;20008;-75
2021/01/26 19:01:39;;;;;;;;;;;;;;;;;;;;;
2021/01/26 19:04:08;;;;;;;5.88;2.80;;;;;;;7.54;86.97;99897.66;6235994;23;20091;-75
2021/01/26 19:10:45;;;;;;;6.68;4.57;;;;;;;7.55;86.81;99882.97;6135466;23;20020;-77
2021/01/26 19:13:15;;;;;;;3.17;2.97;;;;;;;7.49;87.63;99863.88;6244961;23;20023;-75